Time;durP1;ratioP1;P1;durP2;ratioP2;P2;SDS_P1;SDS_P2;PMS_P1;PMS_P2;Temp;Humidity;BMP_temperature;BMP_pressure;BME280_temperature;BME280_humidity;BME280_pressure;Samples;Min_cycle;Max_cycle;Signal;HPM_P1;HPM_P2
2022/09/06 00:02:07;;;;;;;;;;;19.70;56.90;;;15.82;90.93;95772.72;5033241;28;20363;-54
2022/09/06 00:04:39;;;;;;;;;;;19.70;57.00;;;15.83;90.51;95766.28;5022718;28;19920;-50
2022/09/06 00:07:05;;;;;;;;;;;19.70;57.00;;;15.82;90.63;95769.25;5032925;28;19935;-51
2022/09/06 00:09:36;;;;;;;;;;;19.70;57.00;;;15.80;90.84;95772.22;5032571;28;19909;-51
2022/09/06 00:12:03;;;;;;;;;;;19.70;57.00;;;15.82;90.53;95780.78;5030013;28;19909;-53
2022/09/06 00:14:44;;;;;;;;;;;19.70;57.00;;;15.81;90.96;95776.50;5031545;28;20298;-56
2022/09/06 00:17:10;;;;;;;;;;;19.70;57.00;;;15.82;90.71;95774.59;5031298;28;19909;-54
2022/09/06 00:19:38;;;;;;;;;;;19.70;57.10;;;15.81;90.80;95781.88;5004972;28;19983;-46
2022/09/06 00:22:50;;;;;;;;;;;19.70;57.20;;;15.80;91.00;95784.88;5031517;28;19913;-49
2022/09/06 00:25:16;;;;;;;;;;;19.70;57.20;;;15.79;91.50;95788.63;5016916;28;19912;-46
2022/09/06 00:27:42;;;;;;;;;;;19.70;57.30;;;15.76;91.54;95781.94;5030871;28;19908;-47
2022/09/06 00:30:11;;;;;;;;;;;19.70;57.30;;;15.76;91.67;95781.94;5031257;28;19995;-47
2022/09/06 00:32:54;;;;;;;;;;;19.70;57.30;;;15.77;91.52;95778.19;5030348;28;20286;-51
2022/09/06 00:35:23;;;;;;;;;;;19.70;58.00;;;15.78;91.40;95781.66;5030631;28;19951;-49
2022/09/06 00:37:50;;;;;;;;;;;19.70;57.40;;;15.77;91.94;95780.06;5030445;28;19913;-47
2022/09/06 00:40:17;;;;;;;;;;;19.70;57.50;;;15.79;91.71;95775.19;5029895;28;20004;-50
2022/09/06 00:42:46;;;;;;;;;;;19.70;57.50;;;15.79;91.53;95783.25;5030634;28;20283;-49
2022/09/06 00:45:13;;;;;;;;;;;19.70;57.60;;;15.81;91.41;95779.19;5031692;28;20008;-48
2022/09/06 00:47:46;;;;;;;;;;;19.70;57.70;;;15.79;91.77;95780.56;5032003;28;19995;-46
2022/09/06 00:50:16;;;;;;;;;;;19.70;57.70;;;15.78;91.25;95782.47;5030099;28;19913;-51
2022/09/06 00:52:47;;;;;;;;;;;19.70;57.70;;;15.78;91.47;95781.66;5030182;28;19966;-48
2022/09/06 00:55:17;;;;;;;;;;;19.70;57.70;;;15.77;91.16;95782.75;5030240;28;19912;-52
2022/09/06 00:57:45;;;;;;;;;;;19.70;57.70;;;15.73;91.60;95775.28;5030262;28;19915;-49
2022/09/06 01:00:12;;;;;;;;;;;19.70;57.70;;;15.71;91.34;95777.47;5030977;28;19909;-48
2022/09/06 01:02:43;;;;;;;;;;;19.70;57.80;;;15.72;91.41;95784.41;5029754;28;20326;-49
2022/09/06 01:05:17;;;;;;;;;;;19.70;57.80;;;15.77;91.55;95791.63;5031810;28;20414;-48
2022/09/06 01:08:53;;;;;;;;;;;19.70;57.90;;;15.81;91.40;95794.50;5029776;28;19913;-48
2022/09/06 01:12:33;;;;;;;;;;;19.70;58.00;;;15.88;91.11;95789.56;4994431;28;19908;-48
2022/09/06 01:16:21;;;;;;;;;;;19.80;58.10;;;15.94;91.02;95793.75;5027570;28;20274;-49
2022/09/06 01:19:55;;;;;;;;;;;19.80;58.10;;;15.99;90.89;95792.91;5049400;28;19965;-51
2022/09/06 01:22:54;;;;;;;;;;;19.90;58.10;;;16.05;90.66;95803.25;5025121;28;20036;-47
2022/09/06 01:25:32;;;;;;;;;;;19.90;58.10;;;16.11;90.39;95802.09;5041666;28;20061;-48
2022/09/06 01:28:29;;;;;;;;;;;20.00;58.20;;;16.14;90.42;95796.13;5032937;28;19912;-46
2022/09/06 01:31:23;;;;;;;;;;;20.00;58.10;;;16.16;90.68;95801.19;5050698;28;19943;-48
2022/09/06 01:34:00;;;;;;;;;;;20.10;58.20;;;16.23;90.84;95803.50;5002969;28;19916;-49
2022/09/06 01:36:59;;;;;;;;;;;20.20;58.20;;;16.32;90.43;95817.84;5050764;28;19909;-46
2022/09/06 01:39:33;;;;;;;;;;;20.20;58.20;;;16.37;90.27;95820.47;5016946;28;19948;-46
2022/09/06 01:42:08;;;;;;;;;;;20.30;58.20;;;16.42;90.19;95818.50;5032981;28;20287;-49
2022/09/06 01:44:38;;;;;;;;;;;20.40;58.20;;;16.49;89.85;95818.09;5032617;28;20285;-46
2022/09/06 01:47:07;;;;;;;;;;;20.40;58.20;;;16.56;89.67;95818.50;5049242;28;20414;-48
2022/09/06 01:50:10;;;;;;;;;;;20.50;58.20;;;16.69;89.49;95824.19;5042578;28;19995;-48
2022/09/06 01:52:59;;;;;;;;;;;20.50;58.20;;;16.82;87.67;95826.94;5050590;28;19912;-49
2022/09/06 01:55:30;;;;;;;;;;;20.60;58.20;;;16.98;86.90;95829.31;5050318;28;19915;-51
2022/09/06 01:58:35;;;;;;;;;;;20.70;58.20;;;17.19;85.06;95824.34;5050513;28;19912;-48
2022/09/06 02:01:48;;;;;;;;;;;20.80;58.20;;;17.32;84.61;95832.41;5048813;28;19908;-49
2022/09/06 02:04:28;;;;;;;;;;;21.00;58.20;;;17.41;84.28;95835.19;5050270;28;19966;-48
2022/09/06 02:07:07;;;;;;;;;;;21.10;58.10;;;17.49;83.88;95820.22;5016053;28;20011;-49
2022/09/06 02:09:40;;;;;;;;;;;21.20;58.00;;;17.54;84.35;95812.00;5032785;28;19908;-47
2022/09/06 02:12:19;;;;;;;;;;;21.30;58.00;;;17.57;83.15;95808.72;5032595;28;19917;-49
2022/09/06 02:14:58;;;;;;;;;;;21.30;57.80;;;17.60;82.65;95799.25;5050165;28;19920;-51
2022/09/06 02:17:37;;;;;;;;;;;21.40;57.70;;;17.67;81.36;95810.38;5033101;28;19915;-50
2022/09/06 02:20:25;;;;;;;;;;;21.40;57.60;;;17.79;80.47;95816.06;5028184;28;20276;-49
2022/09/06 02:22:56;;;;;;;;;;;21.50;57.60;;;17.90;79.85;95819.34;5030088;28;19919;-49
2022/09/06 02:25:41;;;;;;;;;;;21.60;57.50;;;17.97;80.04;95806.22;5023888;28;20279;-48
2022/09/06 02:28:09;;;;;;;;;;;21.70;57.40;;;18.00;81.02;95802.91;5016643;28;19908;-49
2022/09/06 02:30:44;;;;;;;;;;;21.80;57.30;;;17.99;81.62;95802.13;5031603;28;19912;-47
2022/09/06 02:33:20;;;;;;;;;;;21.80;57.20;;;17.99;81.56;95795.94;5033034;28;20391;-51
2022/09/06 02:35:53;;;;;;;;;;;21.80;57.10;;;17.96;81.71;95791.16;5051653;28;19916;-46
2022/09/06 02:38:39;;;;;;;;;;;21.80;57.10;;;17.94;81.71;95790.66;5036634;28;20366;-46
2022/09/06 02:41:07;;;;;;;;;;;21.80;57.00;;;17.92;81.38;95782.88;5035651;28;20398;-47
2022/09/06 02:43:33;;;;;;;;;;;21.80;57.00;;;17.90;81.87;95782.41;5036327;28;19916;-48
2022/09/06 02:46:02;;;;;;;;;;;21.80;57.00;;;17.89;82.02;95780.78;5032654;28;20490;-48
2022/09/06 02:48:33;;;;;;;;;;;21.80;57.00;;;17.87;81.90;95785.72;5046381;28;19956;-48
2022/09/06 02:51:08;;;;;;;;;;;21.80;57.00;;;17.83;82.90;95790.13;5035496;28;19915;-50
2022/09/06 02:53:34;;;;;;;;;;;21.80;57.00;;;17.77;82.02;95791.34;5053561;28;19932;-50
2022/09/06 02:56:00;;;;;;;;;;;21.80;57.00;;;17.83;82.64;95786.59;5035648;28;19969;-48
2022/09/06 02:58:29;;;;;;;;;;;21.80;57.10;;;17.86;82.08;95788.69;5035750;28;19915;-51
2022/09/06 03:00:58;;;;;;;;;;;21.80;57.00;;;17.84;82.22;95786.31;5053481;28;20387;-46
2022/09/06 03:03:23;;;;;;;;;;;21.80;57.00;;;17.82;82.32;95783.13;5053197;28;20375;-51
2022/09/06 03:05:52;;;;;;;;;;;21.80;57.00;;;17.83;82.05;95789.31;5053467;28;19951;-49
2022/09/06 03:08:21;;;;;;;;;;;21.80;57.00;;;17.82;81.08;95785.03;5053023;28;19908;-50
2022/09/06 03:10:58;;;;;;;;;;;21.80;57.00;;;17.83;81.26;95779.34;5035391;28;19912;-50
2022/09/06 03:13:27;;;;;;;;;;;21.80;57.00;;;17.84;79.66;95789.00;5035922;28;19909;-47
2022/09/06 03:15:57;;;;;;;;;;;21.80;57.00;;;17.90;79.76;95787.78;5048650;28;19909;-46
2022/09/06 03:18:25;;;;;;;;;;;21.80;57.00;;;17.93;79.27;95797.97;5040033;28;20406;-51
2022/09/06 03:20:55;;;;;;;;;;;21.90;57.00;;;17.97;78.94;95812.41;5052363;28;19920;-45
2022/09/06 03:23:28;;;;;;;;;;;21.90;56.90;;;17.99;83.24;95795.94;5047604;28;20356;-44
2022/09/06 03:25:55;;;;;;;;;;;21.90;57.00;;;17.90;86.61;95781.63;5022474;28;19913;-44
2022/09/06 03:28:24;;;;;;;;;;;21.80;57.00;;;17.78;85.80;95782.94;5044076;28;19959;-46
2022/09/06 03:30:53;;;;;;;;;;;21.70;57.10;;;17.67;87.61;95786.94;5018587;28;20015;-44
2022/09/06 03:33:20;;;;;;;;;;;21.50;57.20;;;17.62;87.30;95781.69;5031490;28;19915;-47
2022/09/06 03:36:02;;;;;;;;;;;21.40;57.40;;;17.49;86.74;95796.78;5032883;28;19913;-45
2022/09/06 03:38:29;;;;;;;;;;;21.30;57.60;;;17.42;87.98;95791.00;5023332;28;20006;-48
2022/09/06 03:40:55;;;;;;;;;;;21.20;57.70;;;17.36;88.88;95800.31;5032463;28;20334;-48
2022/09/06 03:43:23;;;;;;;;;;;21.10;57.90;;;17.28;89.59;95809.88;5022784;28;19919;-46
2022/09/06 03:45:56;;;;;;;;;;;21.10;58.00;;;17.17;91.72;95815.75;5032536;28;19909;-49
2022/09/06 03:48:26;;;;;;;;;;;21.00;58.10;;;17.02;92.86;95815.00;5021556;28;20441;-45
2022/09/06 03:50:55;;;;;;;;;;;20.90;58.20;;;16.95;93.22;95798.44;5018274;28;19908;-49
2022/09/06 03:53:24;;;;;;;;;;;20.90;58.30;;;16.88;93.30;95796.13;5020775;28;20359;-46
2022/09/06 03:55:53;;;;;;;;;;;20.80;58.40;;;16.80;93.68;95791.47;5027040;28;20046;-48
2022/09/06 03:58:23;;;;;;;;;;;20.70;58.50;;;16.73;93.37;95799.09;5032467;28;19913;-50
2022/09/06 04:01:04;;;;;;;;;;;20.60;58.60;;;16.64;93.48;95800.91;5031911;28;19909;-47
2022/09/06 04:03:37;;;;;;;;;;;20.50;58.70;;;16.54;94.82;95793.78;5032428;28;19913;-48
2022/09/06 04:06:05;;;;;;;;;;;20.40;58.80;;;16.49;94.81;95787.75;5023085;28;19920;-49
2022/09/06 04:08:33;;;;;;;;;;;20.30;58.90;;;16.37;94.97;95775.56;5032262;28;19909;-45
2022/09/06 04:10:59;;;;;;;;;;;20.30;59.00;;;16.28;95.49;95782.72;5020601;28;19965;-45
2022/09/06 04:13:29;;;;;;;;;;;20.20;59.00;;;16.16;96.52;95783.19;5030202;28;19917;-47
2022/09/06 04:15:55;;;;;;;;;;;20.10;59.20;;;16.10;97.21;95784.34;5021235;28;19913;-45
2022/09/06 04:18:25;;;;;;;;;;;20.10;59.30;;;16.05;97.12;95784.44;4985295;28;19916;-49
2022/09/06 04:20:54;;;;;;;;;;;20.00;59.40;;;16.00;97.64;95783.72;5045793;28;20008;-48
2022/09/06 04:23:26;;;;;;;;;;;19.90;59.50;;;15.94;98.22;95791.88;5050555;28;19973;-48
2022/09/06 04:25:56;;;;;;;;;;;19.80;59.60;;;15.89;98.17;95789.28;5017467;28;19969;-46
2022/09/06 04:28:25;;;;;;;;;;;19.80;59.70;;;15.83;99.02;95795.81;5051026;28;19909;-46
2022/09/06 04:30:53;;;;;;;;;;;19.80;59.80;;;15.79;98.82;95794.00;5033616;28;19908;-46
2022/09/06 04:33:20;;;;;;;;;;;19.70;59.90;;;15.74;99.13;95797.56;5049565;28;19909;-46
2022/09/06 04:36:06;;;;;;;;;;;19.60;60.00;;;15.68;99.60;95796.03;5033697;28;19916;-46
2022/09/06 04:38:38;;;;;;;;;;;19.60;60.10;;;15.66;99.88;95795.50;5034124;28;19968;-48
2022/09/06 04:41:12;;;;;;;;;;;19.60;60.30;;;15.63;100.00;95798.75;5046721;28;20380;-46
2022/09/06 04:43:42;;;;;;;;;;;19.50;60.40;;;15.62;100.00;95795.28;5028658;28;20039;-45
2022/09/06 04:46:29;;;;;;;;;;;19.50;60.50;;;15.62;100.00;95797.19;5000719;28;19912;-49
2022/09/06 04:48:56;;;;;;;;;;;19.50;60.70;;;15.57;100.00;95799.94;5050638;28;20457;-49
2022/09/06 04:51:31;;;;;;;;;;;19.50;60.90;;;15.52;100.00;95791.97;5049954;28;19908;-48
2022/09/06 04:54:00;;;;;;;;;;;19.50;60.90;;;15.47;100.00;95793.63;5051416;28;20387;-47
2022/09/06 04:56:26;;;;;;;;;;;19.40;60.90;;;15.44;100.00;95793.41;5046638;28;19919;-45
2022/09/06 04:58:54;;;;;;;;;;;19.40;60.90;;;15.40;100.00;95795.88;5030639;28;19908;-47
2022/09/06 05:01:25;;;;;;;;;;;19.40;61.00;;;15.37;100.00;95788.41;5033649;28;19951;-46
2022/09/06 05:03:53;;;;;;;;;;;19.30;61.00;;;15.34;100.00;95788.19;5033788;28;20392;-46
2022/09/06 05:06:22;;;;;;;;;;;19.30;61.10;;;15.29;100.00;95794.41;5049844;28;19931;-46
2022/09/06 05:08:49;;;;;;;;;;;19.30;61.20;;;15.28;100.00;95801.66;5009061;28;19909;-48
2022/09/06 05:11:18;;;;;;;;;;;19.30;61.30;;;15.27;100.00;95804.66;5044036;28;19920;-47
2022/09/06 05:13:46;;;;;;;;;;;19.30;61.30;;;15.28;100.00;95811.59;5050952;28;19908;-46
2022/09/06 05:16:12;;;;;;;;;;;19.30;61.40;;;15.27;100.00;95813.50;5028256;28;20424;-46
2022/09/06 05:18:38;;;;;;;;;;;19.30;61.50;;;15.25;100.00;95815.66;5028022;28;19908;-47
2022/09/06 05:21:04;;;;;;;;;;;19.30;61.60;;;15.25;100.00;95820.22;5027728;23;19921;-49
2022/09/06 05:23:30;;;;;;;;;;;19.30;61.60;;;15.22;100.00;95821.59;5031256;28;19913;-45
2022/09/06 05:25:57;;;;;;;;;;;19.30;62.40;;;15.26;100.00;95822.63;5011246;28;20011;-49
2022/09/06 05:28:35;;;;;;;;;;;19.30;61.60;;;15.26;100.00;95825.31;5022733;28;19916;-50
2022/09/06 05:31:32;;;;;;;;;;;19.30;61.70;;;15.26;100.00;95829.88;5014048;28;19920;-48
2022/09/06 05:33:59;;;;;;;;;;;19.30;61.70;;;15.33;100.00;95832.22;5019139;28;20011;-49
2022/09/06 05:36:31;;;;;;;;;;;19.40;61.80;;;15.39;100.00;95837.22;5030894;28;19966;-46
2022/09/06 05:39:00;;;;;;;;;;;19.40;61.80;;;15.44;100.00;95837.13;5030787;28;19959;-46
2022/09/06 05:41:29;;;;;;;;;;;19.50;61.90;;;15.48;100.00;95832.81;5030542;28;19915;-45
2022/09/06 05:44:01;;;;;;;;;;;19.50;61.90;;;15.54;100.00;95840.78;5028642;28;19916;-49
2022/09/06 05:46:27;;;;;;;;;;;19.60;61.90;;;15.62;100.00;95837.44;5031194;28;19984;-46
2022/09/06 05:48:56;;;;;;;;;;;19.70;61.90;;;15.73;100.00;95836.22;5029297;28;19962;-46
2022/09/06 05:51:23;;;;;;;;;;;19.80;61.90;;;15.99;100.00;95841.25;5011644;28;20448;-47
2022/09/06 05:53:49;;;;;;;;;;;19.90;61.80;;;16.24;100.00;95834.69;5012812;28;20004;-46
2022/09/06 05:56:16;;;;;;;;;;;20.20;61.80;;;16.51;100.00;95836.63;4995988;28;19912;-52
2022/09/06 05:58:42;;;;;;;;;;;20.50;61.80;;;16.73;100.00;95841.34;5031408;28;19908;-48
2022/09/06 06:01:16;;;;;;;;;;;20.70;61.60;;;17.01;100.00;95847.56;5030649;28;20287;-46
2022/09/06 06:03:57;;;;;;;;;;;21.00;61.50;;;17.22;98.71;95846.06;5010617;28;19913;-48
2022/09/06 06:06:33;;;;;;;;;;;21.30;61.40;;;17.52;97.74;95843.84;5014206;28;19944;-45
2022/09/06 06:09:00;;;;;;;;;;;21.60;61.00;;;17.86;97.04;95842.59;5009928;28;20283;-48
2022/09/06 06:11:27;;;;;;;;;;;22.00;60.80;;;18.15;92.52;95842.19;5028888;28;19995;-48
2022/09/06 06:13:53;;;;;;;;;;;22.30;60.60;;;18.43;90.60;95850.97;5001421;28;20706;-49
2022/09/06 06:16:21;;;;;;;;;;;22.60;60.20;;;18.71;89.14;95848.91;5024664;28;19989;-46
2022/09/06 06:18:53;;;;;;;;;;;23.00;60.00;;;19.00;84.03;95848.41;5016968;28;20007;-49
2022/09/06 06:21:31;;;;;;;;;;;23.30;59.70;;;19.14;84.39;95848.28;5016639;28;19917;-46
2022/09/06 06:24:05;;;;;;;;;;;23.40;59.60;;;19.16;82.03;95854.97;5016752;28;19920;-47
2022/09/06 06:26:34;;;;;;;;;;;23.50;59.60;;;19.11;82.83;95852.41;5016673;28;19908;-52
2022/09/06 06:29:01;;;;;;;;;;;23.50;59.40;;;19.07;83.50;95848.75;5034403;28;19909;-46
2022/09/06 06:31:32;;;;;;;;;;;23.40;59.20;;;19.00;83.47;95842.22;5034193;28;19908;-47
2022/09/06 06:34:07;;;;;;;;;;;23.50;59.10;;;18.97;84.38;95849.03;5016692;28;19916;-46
2022/09/06 06:36:36;;;;;;;;;;;23.50;58.90;;;19.03;83.02;95852.41;5000105;28;19940;-50
2022/09/06 06:39:07;;;;;;;;;;;23.60;58.80;;;19.16;81.98;95854.19;5034205;28;19915;-50
2022/09/06 06:41:33;;;;;;;;;;;23.70;58.70;;;19.45;82.50;95852.84;5034378;28;19908;-46
2022/09/06 06:44:29;;;;;;;;;;;24.00;58.70;;;19.68;79.54;95862.47;5034284;28;19921;-47
2022/09/06 06:47:01;;;;;;;;;;;24.20;58.60;;;19.78;78.90;95861.34;5016192;28;20293;-49
2022/09/06 06:49:28;;;;;;;;;;;24.30;58.50;;;19.85;78.65;95857.06;5015999;28;20003;-47
2022/09/06 06:52:09;;;;;;;;;;;24.40;58.30;;;19.94;78.65;95859.00;5034018;28;19909;-48
2022/09/06 06:54:36;;;;;;;;;;;24.60;58.10;;;20.01;77.46;95854.69;5024463;28;20028;-47
2022/09/06 06:57:03;;;;;;;;;;;24.70;57.90;;;20.14;79.83;95862.94;5033872;28;19923;-49
2022/09/06 06:59:30;;;;;;;;;;;24.90;57.80;;;20.31;79.09;95850.22;5015575;28;19922;-49
2022/09/06 07:01:55;;;;;;;;;;;25.10;57.60;;;20.45;74.27;95857.38;5016091;28;19908;-46
2022/09/06 07:04:27;;;;;;;;;;;25.30;57.40;;;20.63;75.41;95847.34;5033733;28;19924;-48
2022/09/06 07:07:05;;;;;;;;;;;25.50;57.20;;;20.85;77.33;95840.91;4999756;28;20290;-47
2022/09/06 07:09:36;;;;;;;;;;;25.70;57.00;;;21.17;74.70;95834.06;5031796;28;19908;-47
2022/09/06 07:12:05;;;;;;;;;;;26.00;56.70;;;21.35;71.21;95837.50;5033604;28;19913;-46
2022/09/06 07:14:31;;;;;;;;;;;26.30;56.50;;;21.43;68.89;95834.75;5033444;28;19920;-50
2022/09/06 07:16:58;;;;;;;;;;;26.40;56.20;;;21.61;72.10;95832.72;5033515;28;20382;-49
2022/09/06 07:19:24;;;;;;;;;;;26.60;56.10;;;21.78;71.87;95834.56;5032684;28;19915;-48
2022/09/06 07:21:55;;;;;;;;;;;26.70;55.90;;;21.92;69.84;95829.66;5015091;28;19916;-49
2022/09/06 07:24:36;;;;;;;;;;;26.70;55.80;;;21.99;67.90;95828.31;5033070;28;19962;-49
2022/09/06 07:27:13;;;;;;;;;;;26.70;55.70;;;22.00;68.12;95829.91;4999027;28;19915;-49
2022/09/06 07:29:39;;;;;;;;;;;26.70;55.60;;;22.01;69.51;95835.00;5032709;28;20317;-49
2022/09/06 07:32:07;;;;;;;;;;;26.70;55.40;;;22.15;67.66;95838.22;5033254;28;19927;-48
2022/09/06 07:34:36;;;;;;;;;;;26.80;55.20;;;22.30;65.26;95847.72;5033244;28;19965;-48
2022/09/06 07:37:08;;;;;;;;;;;27.00;55.00;;;22.61;68.37;95843.75;5033311;28;19908;-47
2022/09/06 07:39:40;;;;;;;;;;;27.40;55.10;;;22.81;64.83;95842.91;5032226;28;19909;-50
2022/09/06 07:42:09;;;;;;;;;;;27.60;54.70;;;22.96;66.48;95851.53;5015461;28;20351;-49
2022/09/06 07:44:34;;;;;;;;;;;27.80;54.50;;;23.06;67.36;95853.81;5014957;28;19931;-47
2022/09/06 07:47:09;;;;;;;;;;;28.00;54.30;;;23.23;63.60;95842.75;5032903;28;19909;-46
2022/09/06 07:49:41;;;;;;;;;;;28.20;54.00;;;23.47;66.68;95850.09;5014452;28;19917;-47
2022/09/06 07:52:10;;;;;;;;;;;28.50;53.90;;;23.55;64.00;95854.63;5032755;28;19978;-48
2022/09/06 07:54:38;;;;;;;;;;;28.60;53.60;;;23.60;62.96;95855.50;5033249;28;20252;-48
2022/09/06 07:57:07;;;;;;;;;;;28.60;53.40;;;23.55;61.98;95859.25;5015356;28;19967;-55
2022/09/06 07:59:33;;;;;;;;;;;28.60;53.10;;;23.48;63.49;95865.28;5014452;28;19912;-51
2022/09/06 08:02:02;;;;;;;;;;;28.50;52.80;;;23.17;64.20;95856.91;5014896;28;19958;-54
2022/09/06 08:04:28;;;;;;;;;;;28.40;52.70;;;23.17;65.08;95873.97;5032426;28;20000;-47
2022/09/06 08:06:56;;;;;;;;;;;28.20;52.80;;;23.02;66.33;95871.91;5032368;28;19966;-52
2022/09/06 08:09:22;;;;;;;;;;;27.90;52.70;;;22.91;66.58;95878.88;5032653;28;19915;-49
2022/09/06 08:11:51;;;;;;;;;;;27.80;52.90;;;22.85;66.41;95884.53;5014140;28;20007;-48
2022/09/06 08:14:19;;;;;;;;;;;27.60;53.00;;;22.66;67.45;95897.84;5031625;28;20252;-47
2022/09/06 08:16:45;;;;;;;;;;;27.40;53.10;;;22.29;65.38;95911.25;5014315;28;20298;-48
2022/09/06 08:19:15;;;;;;;;;;;27.10;53.00;;;21.98;65.79;95916.25;5031318;28;19912;-48
2022/09/06 08:21:41;;;;;;;;;;;26.80;52.90;;;21.82;65.92;95916.81;5045499;28;20323;-47
2022/09/06 08:24:10;;;;;;;;;;;26.50;53.00;;;21.52;67.18;95912.50;5014511;28;19998;-48
2022/09/06 08:26:41;;;;;;;;;;;26.20;53.00;;;21.34;68.01;95928.81;5014390;28;19909;-47
2022/09/06 08:29:13;;;;;;;;;;;25.90;53.10;;;21.19;69.45;95934.78;5014476;28;20287;-46
2022/09/06 08:31:42;;;;;;;;;;;25.70;53.30;;;21.01;70.39;95942.16;5014182;28;19916;-47
2022/09/06 08:34:11;;;;;;;;;;;25.50;53.50;;;20.87;74.88;95947.75;5013731;28;19909;-48
2022/09/06 08:36:38;;;;;;;;;;;25.30;53.70;;;20.74;77.59;95946.78;5014718;28;19909;-51
2022/09/06 08:39:10;;;;;;;;;;;25.00;53.80;;;20.58;79.41;95947.63;5031844;28;20000;-50
2022/09/06 08:41:53;;;;;;;;;;;24.80;54.10;;;20.27;80.19;95943.91;5015331;28;20386;-48
2022/09/06 08:44:23;;;;;;;;;;;24.60;54.50;;;20.21;81.05;95939.81;5014331;28;20390;-47
2022/09/06 08:47:10;;;;;;;;;;;24.40;54.70;;;20.07;81.88;95931.03;5014343;28;19915;-48
2022/09/06 08:49:51;;;;;;;;;;;24.10;55.00;;;19.97;83.44;95934.84;5010492;28;19909;-47
2022/09/06 08:52:26;;;;;;;;;;;24.00;55.40;;;19.90;85.07;95920.19;5026367;28;20044;-48
2022/09/06 08:55:13;;;;;;;;;;;23.90;55.60;;;19.76;86.98;95887.91;5031798;28;20379;-47
2022/09/06 08:58:27;;;;;;;;;;;23.80;55.70;;;19.51;87.50;95878.59;5032189;28;20278;-49
2022/09/06 09:01:14;;;;;;;;;;;23.80;55.80;;;19.51;88.96;95887.50;5031361;28;19909;-47
2022/09/06 09:03:45;;;;;;;;;;;23.80;56.00;;;19.60;89.14;95884.81;5014125;28;19919;-47
2022/09/06 09:06:11;;;;;;;;;;;23.90;56.00;;;19.58;87.43;95887.03;5014221;28;19909;-48
2022/09/06 09:09:15;;;;;;;;;;;24.10;55.90;;;19.63;88.99;95882.28;5031605;28;19916;-47
2022/09/06 09:11:48;;;;;;;;;;;24.30;55.90;;;19.65;90.47;95873.91;5014149;28;19940;-51
2022/09/06 09:14:42;;;;;;;;;;;24.50;55.80;;;19.89;89.67;95876.13;5014490;28;19913;-48
2022/09/06 09:17:26;;;;;;;;;;;24.80;55.70;;;20.27;90.77;95889.03;5014614;28;19913;-47
2022/09/06 09:19:57;;;;;;;;;;;25.20;55.60;;;20.45;86.54;95893.31;5000600;28;20000;-46
2022/09/06 09:22:25;;;;;;;;;;;25.60;55.60;;;20.74;82.02;95891.88;5042524;28;19912;-49
2022/09/06 09:24:54;;;;;;;;;;;26.00;55.40;;;21.01;81.46;95896.91;5013400;28;20001;-47
2022/09/06 09:27:27;;;;;;;;;;;26.30;55.20;;;21.39;78.96;95889.94;4997283;28;19909;-47
2022/09/06 09:29:53;;;;;;;;;;;26.70;55.00;;;21.73;79.11;95886.25;5012728;28;19909;-47
2022/09/06 09:32:38;;;;;;;;;;;27.10;54.80;;;22.17;78.45;95887.56;4968841;28;21343;-47
2022/09/06 09:35:39;;;;;;;;;;;27.50;54.50;;;22.44;73.81;95876.47;5013460;28;19999;-46
2022/09/06 09:38:21;;;;;;;;;;;28.00;54.20;;;22.74;72.42;95869.78;5013403;28;19948;-47
2022/09/06 09:41:05;;;;;;;;;;;28.70;53.60;;;23.27;72.53;95875.47;5013588;28;19908;-48
2022/09/06 09:43:37;;;;;;;;;;;29.20;53.20;;;23.45;69.23;95874.09;5013275;28;20268;-49
2022/09/06 09:46:33;;;;;;;;;;;29.50;52.90;;;23.63;71.17;95882.00;5013293;28;19913;-47
2022/09/06 09:49:28;;;;;;;;;;;29.70;52.60;;;23.62;66.85;95880.44;5012483;28;19991;-47
2022/09/06 09:52:14;;;;;;;;;;;29.80;52.40;;;23.52;65.87;95876.25;5013425;28;19969;-48
2022/09/06 09:54:45;;;;;;;;;;;29.70;52.20;;;23.39;68.47;95861.09;5030667;28;19962;-47
2022/09/06 09:57:18;;;;;;;;;;;29.60;52.10;;;23.47;67.18;95857.44;5030905;28;19913;-46
2022/09/06 10:00:11;;;;;;;;;;;29.50;52.10;;;23.44;67.57;95867.09;5030517;28;19909;-47
2022/09/06 10:02:42;;;;;;;;;;;29.40;52.10;;;23.48;68.76;95867.22;5014570;28;19916;-47
2022/09/06 10:05:11;;;;;;;;;;;29.20;52.10;;;23.68;68.54;95869.00;5012745;28;19912;-47
2022/09/06 10:08:05;;;;;;;;;;;29.10;52.20;;;23.70;72.58;95864.03;5030727;28;19939;-47
2022/09/06 10:10:46;;;;;;;;;;;29.00;52.40;;;23.64;68.44;95872.75;5014541;28;20049;-47
2022/09/06 10:13:21;;;;;;;;;;;28.80;52.40;;;23.45;70.00;95873.31;5023685;28;20054;-46
2022/09/06 10:15:51;;;;;;;;;;;28.60;52.50;;;23.44;76.25;95883.41;5013620;28;20359;-47
2022/09/06 10:18:42;;;;;;;;;;;28.40;52.70;;;23.29;70.86;95868.56;5012805;28;19916;-47
2022/09/06 10:21:21;;;;;;;;;;;28.20;52.90;;;22.99;75.04;95867.16;5030122;28;19970;-48
2022/09/06 10:24:12;;;;;;;;;;;27.80;53.20;;;22.66;75.53;95867.16;5013287;28;19916;-51
2022/09/06 10:26:47;;;;;;;;;;;27.40;53.40;;;22.18;74.23;95848.44;5011580;28;19920;-48
2022/09/06 10:29:40;;;;;;;;;;;27.10;53.60;;;21.33;77.14;95840.53;5011158;28;19909;-47
2022/09/06 10:32:55;;;;;;;;;;;26.80;53.70;;;21.36;82.42;95842.59;5031880;28;19917;-53
2022/09/06 10:35:35;;;;;;;;;;;26.70;54.00;;;21.70;82.71;95840.81;5006997;28;19916;-55
2022/09/06 10:38:31;;;;;;;;;;;26.70;54.20;;;22.28;81.30;95843.72;5007559;28;19974;-54
2022/09/06 10:41:21;;;;;;;;;;;27.40;54.30;;;22.94;81.55;95832.06;5015184;28;19913;-50
2022/09/06 10:44:07;;;;;;;;;;;28.30;54.20;;;23.52;81.12;95819.97;5011193;28;20275;-52
2022/09/06 10:46:35;;;;;;;;;;;29.10;53.80;;;23.97;72.15;95818.19;4992969;28;19921;-48
2022/09/06 10:49:02;;;;;;;;;;;29.70;53.60;;;24.22;72.41;95808.81;5012421;28;20007;-52
2022/09/06 10:51:39;;;;;;;;;;;29.90;53.30;;;24.43;70.93;95814.06;5028606;28;19912;-53
2022/09/06 10:54:10;;;;;;;;;;;30.10;53.20;;;24.63;69.89;95814.19;5026127;28;19928;-50
2022/09/06 10:57:10;;;;;;;;;;;30.30;52.90;;;24.80;68.12;95824.78;5028684;28;19962;-50
2022/09/06 11:00:01;;;;;;;;;;;30.50;52.70;;;24.96;71.20;95824.78;5040206;28;20287;-50
2022/09/06 11:02:41;;;;;;;;;;;30.90;52.30;;;25.26;69.37;95822.44;5029581;28;19916;-49
2022/09/06 11:05:19;;;;;;;;;;;31.30;52.00;;;25.64;68.34;95817.44;5032522;28;19912;-47
2022/09/06 11:08:02;;;;;;;;;;;31.70;51.70;;;26.18;61.35;95808.47;5021141;28;20011;-48
2022/09/06 11:10:39;;;;;;;;;;;32.30;51.30;;;26.61;56.39;95798.41;5040941;28;19978;-49
2022/09/06 11:13:18;;;;;;;;;;;33.10;50.60;;;26.98;57.62;95794.00;5029962;28;19917;-49
2022/09/06 11:15:54;;;;;;;;;;;33.70;50.00;;;27.28;56.51;95789.78;5031223;28;19908;-51
2022/09/06 11:19:10;;;;;;;;;;;34.00;49.60;;;27.57;53.04;95783.56;5024678;28;19915;-46
2022/09/06 11:21:53;;;;;;;;;;;34.10;49.20;;;27.80;53.03;95789.00;5033528;23;20636;-51
2022/09/06 11:25:21;;;;;;;;;;;34.30;48.80;;;27.90;58.37;95776.63;5051964;28;20358;-50
2022/09/06 11:27:58;;;;;;;;;;;34.20;48.50;;;27.87;60.43;95788.31;5036566;28;19955;-49
2022/09/06 11:30:28;;;;;;;;;;;34.10;48.50;;;27.77;58.64;95787.00;5033103;28;19908;-54
2022/09/06 11:33:27;;;;;;;;;;;33.90;48.60;;;27.55;56.43;95788.63;5004793;28;19920;-49
2022/09/06 11:36:25;;;;;;;;;;;33.70;48.50;;;27.34;60.52;95780.91;5021886;28;20370;-50
2022/09/06 11:39:01;;;;;;;;;;;33.40;48.60;;;27.25;60.34;95783.09;5050910;28;19912;-51
2022/09/06 11:41:38;;;;;;;;;;;33.00;48.60;;;26.99;60.18;95781.09;5013807;28;19958;-50
2022/09/06 11:44:08;;;;;;;;;;;32.70;48.80;;;26.72;61.97;95783.75;5005786;28;20343;-49
2022/09/06 11:46:39;;;;;;;;;;;32.40;49.00;;;26.44;62.84;95796.88;5032425;28;19909;-52
2022/09/06 11:49:27;;;;;;;;;;;32.00;49.10;;;26.20;62.42;95793.31;5037044;28;20365;-50
2022/09/06 11:51:53;;;;;;;;;;;31.70;49.40;;;25.83;63.94;95798.41;5047136;28;19916;-51
2022/09/06 11:54:21;;;;;;;;;;;31.20;49.50;;;25.47;65.94;95792.13;5020158;28;19931;-53
2022/09/06 11:57:12;;;;;;;;;;;30.80;49.80;;;25.06;67.01;95798.94;5049573;28;20456;-55